Chad Pregracke — WDI9674 — position and weather

sailwx.info

Track history (hours):
 
Tides and Currents Weather Stations Pressure Air Temp Water Temp Dewpoint Dewpoint Depression Visibility Wind Speed Wind Dir Waves Ship Positions

Chad Pregracke

Owner: Marquette Transportation Company, LLC, Paducah, KY. More information available from US FCC via Universal Licensing System and Coast Guard Vessel Documentation Center.

Last reported at 2017-Nov-15 01:53 UTC. Time now 2017-Nov-20 00:33 UTC.
Position N 32°50' W 091°09'.

Length 55 m; draft 3.4 m.

Type: Ship (hazmat cat B). MMSI: 367751050.

Date/timePositionNaut miles runAvg speedWind from/ knotsBaromVisibWave heightAir tempDewpointWater temp
2017-Nov-15 01:53N 32°50' W 091°09'4 3.5
2017-Nov-15 00:44N 32°46' W 091°09'1 4.5
2017-Nov-15 00:29N 32°45' W 091°09'4 3.6
2017-Nov-14 23:21N 32°44' W 091°04'5 2.3
2017-Nov-14 21:04N 32°40' W 091°08'2 3.7
2017-Nov-14 20:32N 32°38' W 091°09'0 3.9
2017-Nov-14 20:30N 32°38' W 091°09'1 2.0
2017-Nov-14 20:00N 32°37' W 091°09'1 1.4
2017-Nov-14 19:30N 32°37' W 091°09'2 4.3
2017-Nov-14 19:00N 32°35' W 091°07'2 4.2
2017-Nov-14 18:29N 32°33' W 091°06'3 5.0
2017-Nov-14 17:50N 32°30' W 091°07'2 5.0
2017-Nov-14 17:30N 32°28' W 091°07'2 4.7
2017-Nov-14 17:00N 32°27' W 091°04'2 4.6
2017-Nov-14 16:30N 32°26' W 091°02'2 4.5
2017-Nov-14 16:00N 32°25' W 090°60'2 3.5
2017-Nov-14 15:30N 32°23' W 090°60'2 3.8
2017-Nov-14 15:00N 32°21' W 090°60'2 4.9
2017-Nov-14 14:30N 32°21' W 090°57'2 4.5
2017-Nov-14 14:00N 32°20' W 090°54'2 4.0
2017-Nov-14 13:30N 32°18' W 090°55'1 1.0
2017-Nov-14 13:00N 32°18' W 090°55'1 1.3
2017-Nov-14 12:30N 32°18' W 090°56'2 4.9
2017-Nov-14 12:00N 32°16' W 090°58'2 4.2
2017-Nov-14 11:30N 32°14' W 090°59'2 4.8
2017-Nov-14 11:00N 32°12' W 090°59'2 4.5
2017-Nov-14 10:30N 32°09' W 091°00'2 4.6
2017-Nov-14 10:00N 32°07' W 091°01'2 4.1
2017-Nov-14 09:30N 32°08' W 091°03'2 4.7
2017-Nov-14 09:00N 32°08' W 091°06'5 4.2
2017-Nov-14 07:46N 32°03' W 091°03'1 4.8
2017-Nov-14 07:30N 32°02' W 091°04'3 5.3
2017-Nov-14 06:56N 31°60' W 091°06'4 4.5
2017-Nov-14 06:03N 31°59' W 091°10'1 4.8
2017-Nov-14 05:55N 31°58' W 091°11'  
2017-Nov-05 11:13N 31°57' W 091°11'3 8.0
2017-Nov-05 10:53N 31°59' W 091°09'4 8.6
2017-Nov-05 10:28N 32°00' W 091°05'5 8.0
2017-Nov-05 09:50N 32°05' W 091°05'3 7.7
2017-Nov-05 09:30N 32°07' W 091°07'2 4.2
2017-Nov-05 09:01N 32°08' W 091°04'4 7.4
2017-Nov-05 08:30N 32°09' W 091°00'5 9.9
2017-Nov-05 08:00N 32°14' W 090°59'5 9.6
2017-Nov-05 07:30N 32°18' W 090°55'3 5.8
2017-Nov-05 07:00N 32°21' W 090°55'3 5.6
2017-Nov-05 06:30N 32°21' W 090°58'3 6.6
2017-Nov-05 06:00N 32°24' W 090°59'4 7.6
2017-Nov-05 05:30N 32°26' W 091°03'4 8.9
2017-Nov-05 05:01N 32°29' W 091°07'5 9.2
2017-Nov-05 04:30N 32°34' W 091°06'5 9.3
2017-Nov-05 04:00N 32°38' W 091°09'  
Track history (hours):
 
Tides and Currents Weather Stations Pressure Air Temp Water Temp Dewpoint Dewpoint Depression Visibility Wind Speed Wind Dir Waves Ship Positions

Chad Pregracke

Owner: Marquette Transportation Company, LLC, Paducah, KY. More information available from US FCC via Universal Licensing System and Coast Guard Vessel Documentation Center.

Last reported at 2017-Nov-15 01:53 UTC. Time now 2017-Nov-20 00:33 UTC.
Position N 32°50' W 091°09'.

Length 55 m; draft 3.4 m.

Type: Ship (hazmat cat B). MMSI: 367751050.

Date/timePositionNaut miles runAvg speedWind from/ knotsBaromVisibWave heightAir tempDewpointWater temp
2017-Nov-15 01:53N 32°50' W 091°09'4 3.5
2017-Nov-15 00:44N 32°46' W 091°09'1 4.5
2017-Nov-15 00:29N 32°45' W 091°09'4 3.6
2017-Nov-14 23:21N 32°44' W 091°04'5 2.3
2017-Nov-14 21:04N 32°40' W 091°08'2 3.7
2017-Nov-14 20:32N 32°38' W 091°09'0 3.9
2017-Nov-14 20:30N 32°38' W 091°09'1 2.0
2017-Nov-14 20:00N 32°37' W 091°09'1 1.4
2017-Nov-14 19:30N 32°37' W 091°09'2 4.3
2017-Nov-14 19:00N 32°35' W 091°07'2 4.2
2017-Nov-14 18:29N 32°33' W 091°06'3 5.0
2017-Nov-14 17:50N 32°30' W 091°07'2 5.0
2017-Nov-14 17:30N 32°28' W 091°07'2 4.7
2017-Nov-14 17:00N 32°27' W 091°04'2 4.6
2017-Nov-14 16:30N 32°26' W 091°02'2 4.5
2017-Nov-14 16:00N 32°25' W 090°60'2 3.5
2017-Nov-14 15:30N 32°23' W 090°60'2 3.8
2017-Nov-14 15:00N 32°21' W 090°60'2 4.9
2017-Nov-14 14:30N 32°21' W 090°57'2 4.5
2017-Nov-14 14:00N 32°20' W 090°54'2 4.0
2017-Nov-14 13:30N 32°18' W 090°55'1 1.0
2017-Nov-14 13:00N 32°18' W 090°55'1 1.3
2017-Nov-14 12:30N 32°18' W 090°56'2 4.9
2017-Nov-14 12:00N 32°16' W 090°58'2 4.2
2017-Nov-14 11:30N 32°14' W 090°59'2 4.8
2017-Nov-14 11:00N 32°12' W 090°59'2 4.5
2017-Nov-14 10:30N 32°09' W 091°00'2 4.6
2017-Nov-14 10:00N 32°07' W 091°01'2 4.1
2017-Nov-14 09:30N 32°08' W 091°03'2 4.7
2017-Nov-14 09:00N 32°08' W 091°06'5 4.2
2017-Nov-14 07:46N 32°03' W 091°03'1 4.8
2017-Nov-14 07:30N 32°02' W 091°04'3 5.3
2017-Nov-14 06:56N 31°60' W 091°06'4 4.5
2017-Nov-14 06:03N 31°59' W 091°10'1 4.8
2017-Nov-14 05:55N 31°58' W 091°11'  
2017-Nov-05 11:13N 31°57' W 091°11'3 8.0
2017-Nov-05 10:53N 31°59' W 091°09'4 8.6
2017-Nov-05 10:28N 32°00' W 091°05'5 8.0
2017-Nov-05 09:50N 32°05' W 091°05'3 7.7
2017-Nov-05 09:30N 32°07' W 091°07'2 4.2
2017-Nov-05 09:01N 32°08' W 091°04'4 7.4
2017-Nov-05 08:30N 32°09' W 091°00'5 9.9
2017-Nov-05 08:00N 32°14' W 090°59'5 9.6
2017-Nov-05 07:30N 32°18' W 090°55'3 5.8
2017-Nov-05 07:00N 32°21' W 090°55'3 5.6
2017-Nov-05 06:30N 32°21' W 090°58'3 6.6
2017-Nov-05 06:00N 32°24' W 090°59'4 7.6
2017-Nov-05 05:30N 32°26' W 091°03'4 8.9
2017-Nov-05 05:01N 32°29' W 091°07'5 9.2
2017-Nov-05 04:30N 32°34' W 091°06'5 9.3
2017-Nov-05 04:00N 32°38' W 091°09'  

Dump ship's entire track history